Time;durP1;ratioP1;P1;durP2;ratioP2;P2;SDS_P1;SDS_P2;PMS_P1;PMS_P2;Temp;Humidity;BMP_temperature;BMP_pressure;BME280_temperature;BME280_humidity;BME280_pressure;Samples;Min_cycle;Max_cycle;Signal;HPM_P1;HPM_P2
2023/04/18 00:02:44;;;;;;;22.60;15.83;;;7.80;1.00;;;;;;8210770;28;20287;-72
2023/04/18 00:07:12;;;;;;;26.10;19.43;;;7.80;1.00;;;;;;8183162;28;20215;-66
2023/04/18 00:11:33;;;;;;;24.10;17.30;;;7.80;1.00;;;;;;8196388;28;20200;-68
2023/04/18 00:15:53;;;;;;;24.03;17.60;;;7.80;1.00;;;;;;8318963;28;20197;-67
2023/04/18 00:20:01;;;;;;;25.80;19.70;;;7.80;1.00;;;;;;8339102;28;20208;-68
2023/04/18 00:24:42;;;;;;;20.03;15.57;;;7.80;1.00;;;;;;8325826;28;20232;-72
2023/04/18 00:28:50;;;;;;;20.97;16.00;;;7.80;1.00;;;;;;8319730;28;20285;-71
2023/04/18 00:37:52;;;;;;;21.83;16.20;;;7.80;86.80;;;;;;8241158;28;20196;-71
2023/04/18 00:42:46;;;;;;;22.47;15.03;;;7.80;1.00;;;;;;8223173;28;20294;-72
2023/04/18 00:46:56;;;;;;;19.07;15.43;;;7.80;1.00;;;;;;8209777;28;20386;-70
2023/04/18 00:51:21;;;;;;;18.40;14.37;;;7.80;1.00;;;;;;8206600;28;20200;-68
2023/04/18 00:55:51;;;;;;;19.57;15.30;;;7.80;1.00;;;;;;8227526;28;20297;-68
2023/04/18 01:00:16;;;;;;;17.67;14.43;;;7.80;1.00;;;;;;8148133;29;20287;-67
2023/04/18 01:09:39;;;;;;;16.33;13.90;;;7.70;1.00;;;;;;8303490;28;20222;-67
2023/04/18 01:14:11;;;;;;;17.57;15.40;;;7.70;1.00;;;;;;8213556;28;20368;-67
2023/04/18 01:18:30;;;;;;;21.90;17.03;;;7.70;99.90;;;;;;8240101;28;20272;-68
2023/04/18 01:23:06;;;;;;;20.67;16.50;;;7.70;1.00;;;;;;8252622;28;20196;-68
2023/04/18 01:27:36;;;;;;;19.97;14.87;;;7.70;1.00;;;;;;8270947;28;20231;-68
2023/04/18 01:32:13;;;;;;;18.03;15.23;;;7.70;1.00;;;;;;8255612;28;20187;-72
2023/04/18 01:36:55;;;;;;;18.03;15.50;;;7.60;1.00;;;;;;8265674;28;20195;-71
2023/04/18 01:41:09;;;;;;;19.93;13.30;;;7.60;1.00;;;;;;8251319;28;20195;-71
2023/04/18 01:45:15;;;;;;;20.73;16.60;;;7.60;1.00;;;;;;8307757;28;20280;-72
2023/04/18 01:49:24;;;;;;;24.27;17.70;;;7.60;1.00;;;;;;8318158;28;20178;-68
2023/04/18 01:53:25;;;;;;;24.70;18.20;;;7.60;1.00;;;;;;8314993;28;20182;-67
2023/04/18 01:58:24;;;;;;;30.20;20.07;;;7.60;1.00;;;;;;8316724;28;20210;-68
2023/04/18 02:02:32;;;;;;;24.73;17.93;;;7.60;1.00;;;;;;8259287;28;20195;-66
2023/04/18 02:06:46;;;;;;;28.47;18.47;;;7.60;1.00;;;;;;8313833;28;20214;-66
2023/04/18 02:11:09;;;;;;;26.87;18.13;;;7.50;1.00;;;;;;8304392;28;20197;-67
2023/04/18 02:15:22;;;;;;;52.80;29.53;;;7.50;1.00;;;;;;8333498;28;20225;-67
2023/04/18 02:19:55;;;;;;;27.57;18.63;;;7.50;1.00;;;;;;8301409;28;20202;-68
2023/04/18 02:24:09;;;;;;;34.53;21.13;;;7.50;1.00;;;;;;8317285;28;20204;-67
2023/04/18 02:32:38;;;;;;;33.47;22.13;;;7.40;99.90;;;;;;8323997;28;20209;-68
2023/04/18 02:36:39;;;;;;;23.13;17.47;;;7.40;92.80;;;;;;8318002;28;20190;-69
2023/04/18 02:40:40;;;;;;;24.63;17.33;;;7.40;99.90;;;;;;8319107;28;20369;-67
2023/04/18 02:44:55;;;;;;;23.13;17.20;;;7.40;99.90;;;;;;8315603;28;20204;-72
2023/04/18 02:49:06;;;;;;;22.07;16.67;;;7.40;99.90;;;;;;8317682;28;20198;-71
2023/04/18 02:53:29;;;;;;;18.57;14.73;;;7.40;99.90;;;;;;8256064;28;20199;-72
2023/04/18 02:57:42;;;;;;;17.37;14.10;;;7.40;99.90;;;;;;8243493;28;20286;-71
2023/04/18 03:01:58;;;;;;;18.63;14.43;;;7.40;99.90;;;;;;8243862;28;20196;-71
2023/04/18 03:06:26;;;;;;;18.43;13.63;;;7.30;99.90;;;;;;8257166;28;20370;-72
2023/04/18 03:11:10;;;;;;;19.43;14.03;;;7.30;1.00;;;;;;8246169;28;20346;-73
2023/04/18 03:15:24;;;;;;;21.20;15.63;;;7.30;1.00;;;;;;8243667;28;20195;-67
2023/04/18 03:19:45;;;;;;;19.07;14.30;;;7.30;99.90;;;;;;8246856;28;20199;-69
2023/04/18 03:23:54;;;;;;;18.40;14.93;;;7.30;1.00;;;;;;8302154;28;20206;-69
2023/04/18 03:28:17;;;;;;;19.77;15.10;;;7.20;99.90;;;;;;8336467;28;20222;-72
2023/04/18 03:32:22;;;;;;;22.07;15.87;;;7.20;1.00;;;;;;8338598;28;20198;-72
2023/04/18 03:36:35;;;;;;;20.07;15.63;;;7.20;99.90;;;;;;8325184;28;20208;-71
2023/04/18 03:41:17;;;;;;;19.20;14.50;;;7.20;99.90;;;;;;8325008;28;20269;-72
2023/04/18 03:49:54;;;;;;;21.80;15.33;;;7.20;99.90;;;;;;8322013;28;20216;-71
2023/04/18 03:54:17;;;;;;;22.97;17.97;;;7.20;1.00;;;;;;8320623;28;20187;-72
2023/04/18 03:58:29;;;;;;;23.70;17.73;;;7.10;56.60;;;;;;8322904;28;20254;-72
2023/04/18 04:02:37;;;;;;;23.17;17.00;;;7.20;1.00;;;;;;8325126;28;20215;-72
2023/04/18 04:07:27;;;;;;;23.37;16.23;;;7.10;99.90;;;;;;8318426;28;20251;-71
2023/04/18 04:16:14;;;;;;;21.63;16.23;;;7.10;99.90;;;;;;8245175;28;20198;-72
2023/04/18 04:20:35;;;;;;;20.33;15.93;;;7.20;1.00;;;;;;8322892;28;20185;-72
2023/04/18 04:24:38;;;;;;;20.87;15.87;;;7.20;99.90;;;;;;8320752;28;20219;-71
2023/04/18 04:28:57;;;;;;;21.23;16.17;;;7.10;99.90;;;;;;8322468;28;20222;-72
2023/04/18 04:32:58;;;;;;;22.90;15.80;;;7.10;99.90;;;;;;8314879;28;20218;-71
2023/04/18 04:37:04;;;;;;;19.93;16.30;;;7.20;91.30;;;;;;8325508;28;20185;-73
2023/04/18 04:41:32;;;;;;;23.43;17.43;;;7.20;99.90;;;;;;8318862;28;20195;-71
2023/04/18 04:45:41;;;;;;;23.07;16.93;;;7.20;1.00;;;;;;8289663;28;20230;-71
2023/04/18 04:54:29;;;;;;;22.30;16.33;;;7.20;99.90;;;;;;8325045;28;20284;-72
2023/04/18 04:58:45;;;;;;;20.20;15.97;;;7.20;99.90;;;;;;8320357;28;20213;-72
2023/04/18 05:02:56;;;;;;;21.43;15.60;;;7.30;15.60;;;;;;8323796;28;20272;-72
2023/04/18 05:07:10;;;;;;;23.73;17.17;;;7.40;99.90;;;;;;8319159;28;20214;-72
2023/04/18 05:16:11;;;;;;;21.27;17.20;;;7.40;99.90;;;;;;8334063;28;20205;-71
2023/04/18 05:20:30;;;;;;;24.53;18.13;;;7.40;99.90;;;;;;8313336;28;20205;-71
2023/04/18 05:24:39;;;;;;;23.20;17.63;;;7.40;94.70;;;;;;8306042;28;20201;-69
2023/04/18 05:33:39;;;;;;;30.03;21.33;;;7.40;1.00;;;;;;8253829;28;20206;-71
2023/04/18 05:42:43;;;;;;;;;;;;;;;;;;;;;
2023/04/18 05:46:45;;;;;;;29.33;20.57;;;7.40;21.10;;;;;;8335478;28;20260;-72
2023/04/18 05:56:11;;;;;;;32.77;24.23;;;7.40;99.90;;;;;;8294163;28;20201;-71
2023/04/18 06:00:19;;;;;;;35.53;24.13;;;7.40;99.90;;;;;;8319371;28;20202;-70
2023/04/18 06:09:15;;;;;;;32.17;22.43;;;7.60;1.00;;;;;;8202520;28;20335;-70
2023/04/18 06:13:25;;;;;;;31.40;22.07;;;7.60;99.90;;;;;;8184929;28;20205;-71
2023/04/18 06:17:34;;;;;;;33.73;22.90;;;7.60;99.90;;;;;;8198503;28;20191;-71
2023/04/18 06:22:04;;;;;;;36.63;25.47;;;7.60;1.00;;;;;;8196192;28;20212;-73
2023/04/18 06:31:32;;;;;;;36.97;24.43;;;7.70;99.90;;;;;;8108509;28;20199;-73
2023/04/18 06:36:06;;;;;;;33.27;22.50;;;7.70;99.90;;;;;;8076352;29;20214;-70
2023/04/18 06:40:14;;;;;;;34.97;23.73;;;7.80;99.90;;;;;;8068788;29;20198;-71
2023/04/18 06:44:15;;;;;;;31.57;23.30;;;7.80;99.90;;;;;;8122889;29;20205;-69
2023/04/18 06:48:30;;;;;;;33.27;23.87;;;7.80;99.90;;;;;;8137827;29;20220;-71
2023/04/18 06:52:58;;;;;;;32.27;23.57;;;7.80;99.90;;;;;;8222284;28;20195;-72
2023/04/18 06:57:33;;;;;;;33.50;24.60;;;7.90;99.90;;;;;;8254562;28;20223;-71
2023/04/18 07:02:08;;;;;;;33.87;23.97;;;7.90;99.90;;;;;;8257460;28;20187;-71
2023/04/18 07:16:24;;;;;;;33.97;24.23;;;8.10;62.30;;;;;;8241211;28;20307;-71
2023/04/18 07:26:01;;;;;;;;;;;;;;;;;;;;;
2023/04/18 07:31:01;;;;;;;;;;;;;;;;;;;;;
2023/04/18 07:40:32;;;;;;;;;;;;;;;;;;;;;
2023/04/18 07:45:37;;;;;;;40.27;28.37;;;8.30;1.00;;;;;;8268545;28;20223;-73
2023/04/18 07:50:26;;;;;;;44.97;30.13;;;8.40;1.00;;;;;;8294315;28;20202;-72
2023/04/18 07:54:31;;;;;;;41.97;26.07;;;8.40;16.80;;;;;;8299417;28;20261;-72
2023/04/18 08:03:24;;;;;;;42.53;28.67;;;8.40;22.40;;;;;;8249645;28;20294;-71
2023/04/18 08:08:03;;;;;;;42.17;28.70;;;8.50;15.50;;;;;;8245665;28;20207;-71
2023/04/18 08:17:07;;;;;;;34.63;26.80;;;8.50;51.10;;;;;;8257571;28;20187;-72
2023/04/18 08:21:19;;;;;;;39.50;25.43;;;8.40;99.90;;;;;;8258396;28;20201;-71
2023/04/18 08:25:35;;;;;;;34.00;26.47;;;8.40;99.90;;;;;;8319248;28;20309;-72
2023/04/18 08:29:42;;;;;;;37.00;27.53;;;8.40;99.90;;;;;;8309622;28;20228;-72
2023/04/18 08:43:29;;;;;;;40.57;28.20;;;8.60;99.90;;;;;;8313760;28;20224;-71
2023/04/18 08:47:40;;;;;;;40.40;27.40;;;8.70;99.90;;;;;;8316547;28;20216;-71
2023/04/18 08:52:01;;;;;;;30.90;23.37;;;8.70;99.90;;;;;;8319629;28;20178;-71
2023/04/18 08:56:36;;;;;;;38.17;28.13;;;8.70;99.90;;;;;;8334288;28;20210;-72
2023/04/18 09:00:37;;;;;;;33.87;24.70;;;8.80;99.90;;;;;;8319106;28;20182;-71
2023/04/18 09:05:30;;;;;;;41.03;26.77;;;8.80;99.90;;;;;;8313453;28;20181;-72
2023/04/18 09:10:37;;;;;;;41.47;28.80;;;8.90;99.90;;;;;;8259396;28;20217;-73
2023/04/18 09:14:47;;;;;;;41.43;26.47;;;9.00;99.90;;;;;;8187843;28;20348;-71
2023/04/18 09:19:27;;;;;;;40.63;30.00;;;9.00;98.10;;;;;;8315643;28;20194;-70
2023/04/18 09:29:01;;;;;;;32.47;25.80;;;9.10;97.30;;;;;;8293296;28;20218;-72
2023/04/18 09:33:45;;;;;;;34.97;24.00;;;9.10;99.90;;;;;;8333639;28;20201;-70
2023/04/18 09:38:25;;;;;;;30.47;26.10;;;9.00;99.90;;;;;;8186895;28;20284;-71
2023/04/18 09:43:31;;;;;;;29.00;22.13;;;9.10;99.90;;;;;;8159568;28;20228;-72
2023/04/18 09:48:24;;;;;;;;;;;;;;;;;;;;;
2023/04/18 10:03:21;;;;;;;27.03;19.20;;;9.40;99.90;;;;;;8171792;28;20201;-71
2023/04/18 10:08:09;;;;;;;;;;;;;;;;;;;;;
2023/04/18 10:12:47;;;;;;;27.03;20.07;;;9.40;99.90;;;;;;8106851;28;20225;-71
2023/04/18 10:16:57;;;;;;;33.93;23.53;;;9.30;99.90;;;;;;8242868;28;20243;-71
2023/04/18 10:21:03;;;;;;;42.97;27.53;;;9.40;99.90;;;;;;8312829;28;20226;-70
2023/04/18 10:25:05;;;;;;;43.83;28.87;;;9.40;99.90;;;;;;8317943;28;20191;-71
2023/04/18 10:29:32;;;;;;;48.90;30.60;;;9.50;99.90;;;;;;8314009;28;20250;-71
2023/04/18 10:33:40;;;;;;;32.53;22.83;;;9.50;99.90;;;;;;8285035;28;20198;-72
2023/04/18 10:38:01;;;;;;;28.77;21.87;;;9.60;99.90;;;;;;8253594;28;20233;-70
2023/04/18 10:42:38;;;;;;;39.10;25.60;;;9.60;22.90;;;;;;8229185;28;20205;-70
2023/04/18 10:47:20;;;;;;;41.27;26.90;;;9.70;12.20;;;;;;8241349;28;20213;-71
2023/04/18 10:51:31;;;;;;;30.70;22.60;;;9.70;1.00;;;;;;8255522;28;20354;-70
2023/04/18 11:00:28;;;;;;;33.50;23.53;;;9.80;1.00;;;;;;8322262;28;20215;-70
2023/04/18 11:05:09;;;;;;;45.20;31.73;;;9.80;1.00;;;;;;8328707;28;20192;-72
2023/04/18 11:10:00;;;;;;;40.70;29.33;;;9.90;1.00;;;;;;8239297;28;20221;-72
2023/04/18 11:14:31;;;;;;;28.50;22.27;;;10.00;99.90;;;;;;8303855;28;20202;-72
2023/04/18 11:19:18;;;;;;;35.30;24.90;;;10.20;99.90;;;;;;8301775;28;20204;-70
2023/04/18 11:24:07;;;;;;;29.43;21.83;;;10.20;99.90;;;;;;8330335;28;20212;-72
2023/04/18 11:28:58;;;;;;;37.40;27.50;;;10.30;99.90;;;;;;8301345;28;20233;-71
2023/04/18 11:33:07;;;;;;;36.43;24.70;;;10.50;99.90;;;;;;8268165;28;20202;-70
2023/04/18 11:37:31;;;;;;;40.60;26.23;;;10.60;93.00;;;;;;8255063;28;20202;-71
2023/04/18 11:41:58;;;;;;;38.20;25.50;;;10.70;78.10;;;;;;8165562;28;20239;-74
2023/04/18 11:46:12;;;;;;;39.80;27.10;;;10.80;1.00;;;;;;8221749;28;20263;-70
2023/04/18 11:50:57;;;;;;;26.40;20.10;;;10.70;1.00;;;;;;8254579;28;20285;-71
2023/04/18 11:55:29;;;;;;;31.77;24.50;;;10.70;1.00;;;;;;8274612;28;20198;-71
2023/04/18 11:59:36;;;;;;;29.50;22.57;;;10.80;1.00;;;;;;8189343;28;20214;-69
2023/04/18 12:03:37;;;;;;;31.27;23.23;;;10.80;13.60;;;;;;8275208;28;20210;-72
2023/04/18 12:08:10;;;;;;;37.23;24.50;;;10.80;1.00;;;;;;8301374;28;20358;-70
2023/04/18 12:12:46;;;;;;;35.53;24.90;;;10.70;1.00;;;;;;8292849;28;20194;-71
2023/04/18 12:16:51;;;;;;;29.07;22.87;;;10.70;14.00;;;;;;8288662;28;20292;-71
2023/04/18 12:21:04;;;;;;;37.13;25.93;;;10.70;1.00;;;;;;8261144;28;20190;-73
2023/04/18 12:25:55;;;;;;;34.27;26.43;;;10.70;8.30;;;;;;8296667;28;20201;-73
2023/04/18 12:34:55;;;;;;;33.50;22.90;;;10.60;75.20;;;;;;8198255;28;20196;-73
2023/04/18 12:39:28;;;;;;;;;;;;;;;;;;;;;
2023/04/18 12:48:11;;;;;;;36.53;27.37;;;10.60;87.50;;;;;;8296693;28;20256;-70
2023/04/18 12:52:59;;;;;;;35.93;27.67;;;10.60;99.90;;;;;;8277739;28;20217;-71
2023/04/18 13:01:12;;;;;;;31.97;24.47;;;10.70;99.90;;;;;;8329713;28;20233;-72
2023/04/18 13:05:16;;;;;;;31.23;23.60;;;10.70;87.40;;;;;;8325901;28;20197;-70
2023/04/18 13:09:30;;;;;;;29.67;22.70;;;10.80;73.00;;;;;;8321795;28;20224;-71
2023/04/18 13:13:40;;;;;;;29.23;21.23;;;10.80;74.80;;;;;;8320277;28;20229;-70
2023/04/18 13:17:47;;;;;;;37.47;28.07;;;10.80;4.80;;;;;;8317853;28;20196;-71
2023/04/18 13:26:45;;;;;;;30.20;22.50;;;10.80;33.80;;;;;;8323952;28;20218;-70
2023/04/18 13:30:55;;;;;;;30.87;23.33;;;10.80;40.80;;;;;;8332163;28;20489;-71
2023/04/18 13:35:07;;;;;;;29.83;22.17;;;10.80;53.70;;;;;;8323662;28;20209;-71
2023/04/18 13:39:19;;;;;;;37.03;24.60;;;10.80;88.30;;;;;;8313320;28;20222;-71
2023/04/18 13:43:23;;;;;;;44.37;27.97;;;10.70;82.50;;;;;;8352187;28;20190;-71
2023/04/18 13:47:46;;;;;;;;;;;;;;;;;;;;;
2023/04/18 13:51:52;;;;;;;27.60;21.00;;;10.80;92.70;;;;;;8342490;28;20204;-70
2023/04/18 13:56:07;;;;;;;31.97;22.87;;;10.80;99.90;;;;;;8316204;28;20202;-72
2023/04/18 14:05:22;;;;;;;26.47;20.43;;;10.80;64.90;;;;;;8329469;28;20208;-70
2023/04/18 14:09:23;;;;;;;26.80;21.57;;;10.80;88.00;;;;;;8336423;28;20276;-70
2023/04/18 14:13:34;;;;;;;30.10;22.40;;;10.80;99.90;;;;;;8334274;28;20191;-71
2023/04/18 14:18:20;;;;;;;28.53;21.40;;;10.80;99.90;;;;;;8331547;28;20261;-70
2023/04/18 14:22:25;;;;;;;26.83;20.23;;;10.80;99.90;;;;;;8330853;28;20229;-69
2023/04/18 14:26:26;;;;;;;25.87;19.27;;;10.80;99.90;;;;;;8295703;28;20218;-71
2023/04/18 14:30:50;;;;;;;29.70;24.17;;;10.80;99.90;;;;;;8275243;28;20307;-72
2023/04/18 14:35:09;;;;;;;69.43;53.37;;;10.80;99.90;;;;;;8268697;28;20355;-71
2023/04/18 14:39:19;;;;;;;32.77;27.50;;;10.90;97.10;;;;;;8279812;28;20194;-70
2023/04/18 14:48:15;;;;;;;69.97;51.07;;;11.10;58.30;;;;;;8233263;28;20258;-72
2023/04/18 14:52:20;;;;;;;30.47;23.13;;;11.20;51.40;;;;;;8300902;28;20202;-71
2023/04/18 14:56:24;;;;;;;47.00;38.87;;;11.20;39.60;;;;;;8311930;28;20220;-72
2023/04/18 15:05:22;;;;;;;26.10;20.10;;;11.30;1.00;;;;;;8326889;28;20259;-72
2023/04/18 15:10:15;;;;;;;24.30;18.50;;;11.30;1.00;;;;;;8334679;28;20186;-72
2023/04/18 15:15:00;;;;;;;26.17;20.00;;;11.40;1.00;;;;;;8265342;28;20279;-72
2023/04/18 15:19:13;;;;;;;25.93;18.90;;;11.40;1.00;;;;;;8189374;28;20272;-72
2023/04/18 15:24:10;;;;;;;25.10;19.83;;;11.40;1.00;;;;;;8291445;28;20197;-72
2023/04/18 15:28:20;;;;;;;27.40;18.83;;;11.40;1.60;;;;;;8333744;28;20268;-73
2023/04/18 15:32:24;;;;;;;24.07;18.97;;;11.50;95.30;;;;;;8334203;28;20186;-72
2023/04/18 15:36:28;;;;;;;22.90;19.50;;;11.60;1.00;;;;;;8335824;28;20280;-72
2023/04/18 15:40:49;;;;;;;;;;;;;;;;;;;;;
2023/04/18 15:45:02;;;;;;;22.47;16.10;;;11.50;1.00;;;;;;8333853;28;20220;-71
2023/04/18 15:49:55;;;;;;;25.30;17.77;;;11.60;1.00;;;;;;8339547;28;20205;-71
2023/04/18 15:54:08;;;;;;;25.53;18.70;;;11.70;1.00;;;;;;8198806;28;20253;-70
2023/04/18 15:58:12;;;;;;;24.90;18.30;;;11.60;1.00;;;;;;8286106;28;20218;-71
2023/04/18 16:07:12;;;;;;;24.10;18.90;;;11.60;4.70;;;;;;8176648;28;20228;-72
2023/04/18 16:11:42;;;;;;;23.30;17.37;;;11.50;1.00;;;;;;8310325;28;20195;-71
2023/04/18 16:16:10;;;;;;;22.50;15.30;;;11.40;6.40;;;;;;8335553;28;20212;-71
2023/04/18 16:21:21;;;;;;;20.27;16.07;;;11.50;1.00;;;;;;8333163;28;20194;-70
2023/04/18 16:26:23;;;;;;;30.83;23.07;;;11.40;24.00;;;;;;8291968;28;20218;-71
2023/04/18 16:34:44;;;;;;;23.67;18.00;;;11.50;1.00;;;;;;8307755;28;20199;-69
2023/04/18 16:38:49;;;;;;;26.43;20.77;;;11.50;1.00;;;;;;8334918;28;20186;-71
2023/04/18 16:48:04;;;;;;;23.80;18.10;;;11.60;1.00;;;;;;8337004;28;20214;-69
2023/04/18 16:52:08;;;;;;;29.73;23.00;;;11.60;13.90;;;;;;8334836;28;20219;-71
2023/04/18 16:56:31;;;;;;;25.40;19.93;;;11.60;1.00;;;;;;8325013;28;20300;-70
2023/04/18 17:01:18;;;;;;;27.80;21.93;;;11.60;1.00;;;;;;8334152;28;20285;-71
2023/04/18 17:05:20;;;;;;;26.87;18.07;;;11.50;1.00;;;;;;8335736;28;20263;-70
2023/04/18 17:09:24;;;;;;;20.30;16.83;;;11.50;1.00;;;;;;8333085;28;20344;-70
2023/04/18 17:13:35;;;;;;;30.60;22.60;;;11.50;1.00;;;;;;8332725;28;20246;-70
2023/04/18 17:18:32;;;;;;;39.57;27.13;;;11.50;1.00;;;;;;8326014;28;20282;-71
2023/04/18 17:28:15;;;;;;;29.43;21.27;;;11.30;1.00;;;;;;8203515;28;20216;-71
2023/04/18 17:52:50;;;;;;;26.60;20.40;;;10.90;99.90;;;;;;8126417;28;20224;-71
2023/04/18 17:57:34;;;;;;;27.17;19.67;;;10.80;99.90;;;;;;8179695;28;20220;-72
2023/04/18 18:02:10;;;;;;;;;;;;;;;;;;;;;
2023/04/18 18:27:23;;;;;;;;;;;;;;;;;;;;;
2023/04/18 18:31:41;;;;;;;21.80;15.67;;;10.40;1.00;;;;;;8103095;29;20228;-68
2023/04/18 18:36:08;;;;;;;17.27;14.53;;;10.30;1.00;;;;;;8117868;29;20240;-67
2023/04/18 18:40:43;;;;;;;16.70;13.90;;;10.20;14.10;;;;;;8124073;28;20307;-67
2023/04/18 18:45:16;;;;;;;24.53;18.17;;;10.10;99.90;;;;;;8228824;28;20310;-67
2023/04/18 18:49:48;;;;;;;;;;;;;;;;;;;;;
2023/04/18 19:03:57;;;;;;;26.00;18.00;;;9.90;99.90;;;;;;8225327;28;20223;-67
2023/04/18 19:08:48;;;;;;;20.60;14.80;;;9.90;99.90;;;;;;8220130;28;20231;-67
2023/04/18 19:13:33;;;;;;;18.00;13.80;;;9.90;99.90;;;;;;8249981;28;20207;-67
2023/04/18 19:17:34;;;;;;;17.80;14.13;;;9.90;99.90;;;;;;8352991;28;20214;-67
2023/04/18 19:21:49;;;;;;;;;;;;;;;;;;;;;
2023/04/18 19:26:04;;;;;;;15.93;12.97;;;9.90;99.90;;;;;;8338900;28;20213;-68
2023/04/18 19:30:33;;;;;;;16.87;12.73;;;9.90;99.90;;;;;;8342050;28;20195;-67
2023/04/18 19:34:45;;;;;;;16.47;12.00;;;9.90;99.90;;;;;;8340021;28;20184;-68
2023/04/18 19:39:00;;;;;;;14.87;12.97;;;9.90;99.90;;;;;;8336623;28;20188;-67
2023/04/18 19:43:14;;;;;;;16.43;13.20;;;9.90;1.00;;;;;;8341029;28;20199;-68
2023/04/18 19:47:36;;;;;;;17.17;13.17;;;9.90;1.00;;;;;;8335265;28;20221;-69
2023/04/18 19:51:51;;;;;;;16.70;12.90;;;9.90;1.00;;;;;;8337737;28;20193;-68
2023/04/18 19:55:56;;;;;;;15.70;12.47;;;9.90;1.00;;;;;;8337376;28;20231;-69
2023/04/18 20:04:59;;;;;;;18.60;14.27;;;9.90;1.00;;;;;;8304552;28;20216;-68
2023/04/18 20:09:13;;;;;;;17.37;14.13;;;9.90;32.20;;;;;;8329613;28;20224;-69
2023/04/18 20:13:21;;;;;;;17.67;14.13;;;9.90;99.90;;;;;;8334067;28;20186;-69
2023/04/18 20:17:52;;;;;;;18.70;13.33;;;9.80;99.90;;;;;;8327868;28;20212;-68
2023/04/18 20:32:00;;;;;;;14.73;12.97;;;9.80;99.90;;;;;;8220908;28;20219;-68
2023/04/18 20:36:33;;;;;;;15.37;12.53;;;9.70;99.90;;;;;;8228737;28;20230;-68
2023/04/18 20:40:52;;;;;;;15.90;12.63;;;9.80;99.90;;;;;;8196983;28;20199;-68
2023/04/18 20:45:22;;;;;;;15.20;12.80;;;9.70;1.00;;;;;;8181094;28;20356;-68
2023/04/18 20:49:32;;;;;;;15.63;12.40;;;9.70;1.00;;;;;;8232476;28;20329;-68
2023/04/18 20:53:43;;;;;;;14.50;12.47;;;9.70;1.00;;;;;;8267798;28;20207;-68
2023/04/18 20:57:49;;;;;;;16.13;13.13;;;9.70;17.70;;;;;;8253140;28;20214;-68
2023/04/18 21:02:26;;;;;;;16.53;13.00;;;9.70;99.90;;;;;;8267832;28;20276;-68
2023/04/18 21:06:42;;;;;;;14.50;12.23;;;9.70;99.90;;;;;;8252765;28;20221;-67
2023/04/18 21:11:15;;;;;;;15.30;12.33;;;9.60;99.90;;;;;;8292320;28;20191;-69
2023/04/18 21:15:50;;;;;;;21.03;13.47;;;9.60;99.90;;;;;;8322363;28;20188;-67
2023/04/18 21:25:44;;;;;;;;;;;;;;;;;;;;;
2023/04/18 21:30:05;;;;;;;20.47;16.20;;;9.60;99.90;;;;;;8308762;28;20220;-69
2023/04/18 21:34:21;;;;;;;16.40;13.90;;;9.60;1.00;;;;;;8335142;28;20268;-70
2023/04/18 21:39:15;;;;;;;16.97;13.93;;;9.60;99.90;;;;;;8329821;28;20308;-71
2023/04/18 21:44:03;;;;;;;15.80;13.83;;;9.50;99.90;;;;;;8080252;29;20219;-70
2023/04/18 21:48:21;;;;;;;20.23;14.77;;;9.60;99.90;;;;;;8211495;28;20322;-71
2023/04/18 21:52:46;;;;;;;20.20;15.27;;;9.60;1.00;;;;;;8203230;28;20215;-70
2023/04/18 21:56:58;;;;;;;21.03;15.70;;;9.70;99.90;;;;;;8237084;28;20226;-71
2023/04/18 22:01:11;;;;;;;21.50;15.43;;;9.70;1.00;;;;;;8218038;28;20206;-68
2023/04/18 22:05:18;;;;;;;22.03;15.80;;;9.70;1.00;;;;;;8213211;28;20214;-71
2023/04/18 22:14:36;;;;;;;23.47;16.53;;;9.60;1.00;;;;;;8290346;28;20253;-68
2023/04/18 22:18:44;;;;;;;21.70;16.33;;;9.60;99.90;;;;;;8230583;28;20257;-69
2023/04/18 22:22:48;;;;;;;19.73;15.23;;;9.60;99.90;;;;;;8277265;28;20200;-73
2023/04/18 22:27:28;;;;;;;31.83;22.30;;;9.50;99.90;;;;;;8324411;28;20308;-69
2023/04/18 22:36:23;;;;;;;19.00;15.37;;;9.50;99.90;;;;;;8251658;28;20204;-70
2023/04/18 22:40:36;;;;;;;18.60;15.63;;;9.50;99.90;;;;;;8246903;28;20204;-70
2023/04/18 22:45:15;;;;;;;20.70;16.20;;;9.50;99.90;;;;;;8253181;28;20325;-70
2023/04/18 22:54:19;;;;;;;17.93;14.50;;;9.40;99.90;;;;;;8245256;28;20259;-70
2023/04/18 22:59:35;;;;;;;;;;;;;;;;;;;;;
2023/04/18 23:03:50;;;;;;;21.40;16.50;;;9.40;99.90;;;;;;8320116;28;20226;-68
2023/04/18 23:08:22;;;;;;;21.77;15.80;;;9.50;99.90;;;;;;8325181;28;20229;-68
2023/04/18 23:16:56;;;;;;;16.77;13.07;;;9.50;99.90;;;;;;8331246;28;20202;-68
2023/04/18 23:25:57;;;;;;;19.63;13.63;;;9.50;99.90;;;;;;8130567;29;20206;-68
2023/04/18 23:30:14;;;;;;;21.07;15.13;;;9.50;99.90;;;;;;8119690;29;20211;-70
2023/04/18 23:34:23;;;;;;;20.57;14.10;;;9.50;99.90;;;;;;8123486;29;20200;-67
2023/04/18 23:38:35;;;;;;;21.70;15.17;;;9.50;99.90;;;;;;8141711;29;20218;-68
2023/04/18 23:43:27;;;;;;;22.43;14.17;;;9.40;99.90;;;;;;8143925;29;20273;-68
2023/04/18 23:47:47;;;;;;;;;;;;;;;;;;;;;
2023/04/18 23:52:09;;;;;;;19.93;13.67;;;9.50;90.20;;;;;;8188777;28;20238;-71
2023/04/18 23:56:39;;;;;;;23.23;16.20;;;9.50;22.10;;;;;;8276712;28;20224;-69
